createdAt,value
2022-10-22T00:07:53.021Z,100555.63
2022-10-22T00:17:54.365Z,100563.47
2022-10-22T00:27:55.967Z,100563.41
2022-10-22T00:37:57.301Z,100576.44
2022-10-22T00:48:18.337Z,100571.34
2022-10-22T00:58:24.138Z,100560.09
2022-10-22T01:08:41.287Z,100565.38
2022-10-22T01:18:54.796Z,100557.41
2022-10-22T01:29:25.168Z,100552.88
2022-10-22T01:39:29.259Z,100542.59
2022-10-22T01:49:44.854Z,100541.81
2022-10-22T02:00:00.716Z,100539.97
2022-10-22T02:21:24.428Z,100533.22
2022-10-22T02:31:32.505Z,100528.09
2022-10-22T02:41:34.312Z,100544.53
2022-10-22T02:51:35.651Z,100555.03
2022-10-22T03:01:36.986Z,100548.03
2022-10-22T03:11:38.353Z,100555.91
2022-10-22T03:21:43.928Z,100556.75
2022-10-22T03:31:45.271Z,100556.69
2022-10-22T03:41:49.281Z,100561.00
2022-10-22T03:51:50.688Z,100576.53
2022-10-22T04:01:52.062Z,100583.38
2022-10-22T04:11:53.381Z,100587.63
2022-10-22T04:21:54.752Z,100586.59
2022-10-22T04:31:56.224Z,100596.75
2022-10-22T04:41:57.560Z,100615.16
2022-10-22T04:51:58.944Z,100603.03
2022-10-22T05:02:00.309Z,100618.59
2022-10-22T05:12:01.665Z,100618.63
2022-10-22T05:22:04.648Z,100628.34
2022-10-22T05:32:06.022Z,100637.97
2022-10-22T05:42:07.372Z,100638.06
2022-10-22T05:52:08.743Z,100645.09
2022-10-22T06:02:10.291Z,100658.09
2022-10-22T06:12:13.646Z,100667.56
2022-10-22T06:22:14.982Z,100679.56
2022-10-22T06:32:16.336Z,100690.78
2022-10-22T06:42:17.735Z,100710.53
2022-10-22T06:52:19.141Z,100720.69
2022-10-22T07:02:20.457Z,100737.84
2022-10-22T07:12:21.806Z,100757.69
2022-10-22T07:22:23.140Z,100763.47
2022-10-22T07:32:24.515Z,100779.66
2022-10-22T07:42:25.904Z,100791.75
2022-10-22T07:52:27.720Z,100796.81
2022-10-22T08:02:29.050Z,100806.25
2022-10-22T08:12:30.432Z,100813.09
2022-10-22T08:22:31.911Z,100834.53
2022-10-22T08:32:33.368Z,100846.31
2022-10-22T08:43:09.205Z,100864.41
2022-10-22T08:53:17.336Z,100869.16
2022-10-22T09:03:21.434Z,100883.94
2022-10-22T09:13:23.761Z,100889.69
2022-10-22T09:23:49.920Z,100904.03
2022-10-22T09:33:51.462Z,100908.25
2022-10-22T09:43:52.920Z,100916.72
2022-10-22T09:54:00.069Z,100911.19
2022-10-22T10:04:09.629Z,100920.38
2022-10-22T10:14:21.381Z,100936.78
2022-10-22T10:24:41.223Z,100952.47
2022-10-22T10:34:57.853Z,100949.34
2022-10-22T10:45:16.714Z,100958.78
2022-10-22T10:55:30.853Z,100973.69
2022-10-22T11:05:39.756Z,100973.41
2022-10-22T11:15:44.260Z,100974.63
2022-10-22T11:25:48.004Z,100984.00
2022-10-22T11:35:51.022Z,100990.09
2022-10-22T11:46:00.791Z,100992.72
2022-10-22T11:56:09.816Z,100996.25
2022-10-22T12:06:11.949Z,100991.63
2022-10-22T12:16:14.938Z,100990.75
2022-10-22T12:36:36.417Z,100960.81
2022-10-22T12:46:37.768Z,100963.31
2022-10-22T12:56:39.238Z,100964.63
2022-10-22T13:06:45.113Z,100971.59
2022-10-22T13:17:19.400Z,100977.78
2022-10-22T13:27:20.735Z,100982.19
2022-10-22T13:37:22.249Z,100984.00
2022-10-22T13:47:26.946Z,100989.94
2022-10-22T13:57:28.287Z,100995.88
2022-10-22T14:07:29.747Z,100997.50
2022-10-22T14:17:31.608Z,101003.53
2022-10-22T14:27:32.966Z,101002.69
2022-10-22T14:37:34.330Z,100997.25
2022-10-22T14:47:35.689Z,101006.06
2022-10-22T14:57:39.198Z,101009.72
2022-10-22T15:07:41.806Z,101011.56
2022-10-22T15:17:43.792Z,101015.31
2022-10-22T15:27:50.346Z,101025.94
2022-10-22T15:37:53.151Z,101033.03
2022-10-22T15:47:54.495Z,101035.84
2022-10-22T15:57:58.034Z,101038.75
2022-10-22T16:08:01.939Z,101053.00
2022-10-22T16:18:03.482Z,101056.91
2022-10-22T16:28:05.128Z,101059.97
2022-10-22T16:38:06.878Z,101061.28
2022-10-22T16:48:09.024Z,101055.72
2022-10-22T16:58:10.371Z,101057.78
2022-10-22T17:08:11.903Z,101064.22
2022-10-22T17:18:13.350Z,101070.63
2022-10-22T17:28:14.672Z,101078.72
2022-10-22T17:38:15.986Z,101091.09
2022-10-22T17:48:17.417Z,101092.16
2022-10-22T17:58:18.765Z,101087.16
2022-10-22T18:08:20.152Z,101088.91
2022-10-22T18:18:23.147Z,101088.25
2022-10-22T18:28:24.581Z,101095.22
2022-10-22T18:38:25.916Z,101100.63
2022-10-22T18:48:27.315Z,101090.31
2022-10-22T18:58:28.638Z,101079.97
2022-10-22T19:08:30.221Z,101089.63
2022-10-22T19:18:31.714Z,101094.94
2022-10-22T19:28:33.286Z,101086.28
2022-10-22T19:38:37.629Z,101079.47
2022-10-22T19:48:39.407Z,101079.47
2022-10-22T19:58:40.817Z,101068.31
2022-10-22T20:08:42.485Z,101081.31
2022-10-22T20:18:43.876Z,101095.22
2022-10-22T20:28:45.200Z,101084.88
2022-10-22T20:38:48.117Z,101088.34
2022-10-22T20:48:55.044Z,101096.16
2022-10-22T20:59:04.726Z,101087.50
2022-10-22T21:09:08.218Z,101085.81
2022-10-22T21:19:09.707Z,101086.69
2022-10-22T21:29:12.375Z,101089.28
2022-10-22T21:39:14.058Z,101085.00
2022-10-22T21:49:15.450Z,101089.31
2022-10-22T21:59:16.795Z,101092.78
2022-10-22T22:09:18.720Z,101091.06
2022-10-22T22:19:20.137Z,101088.47
2022-10-22T22:29:21.500Z,101074.63
2022-10-22T22:39:24.127Z,101067.69
2022-10-22T22:49:25.487Z,101065.09
2022-10-22T22:59:26.897Z,101067.69
2022-10-22T23:09:28.264Z,101066.81
2022-10-22T23:19:29.662Z,101052.13
2022-10-22T23:29:33.603Z,101054.75
2022-10-22T23:39:34.978Z,101052.16
2022-10-22T23:49:36.341Z,101035.72
2022-10-22T23:59:37.701Z,101030.53
